DW3435 Weather Reports


Display with metric or nautical units.
time (UTC)temp
F
wind
direction
speed
MPH
gust
MPH
rain 1hr
in
rain 24hr
in
rain mn
in
humidity
%
barometer
mb
20180123013626 54 218 0.0 6.0 0.01 0.10 0.10 97 1009.3
20180123012126 54 227 2.0 6.0 0.01 0.10 0.10 98 1009.3
20180123010628 53 235 1.0 6.0 0.01 0.10 0.10 98 1009.6
20180123005124 52 222 0.0 0.0 0.00 0.09 0.09 98 1009.8
20180123003629 52 228 0.0 2.0 0.00 0.09 0.09 97 1009.6
20180123002121 51 235 0.0 0.0 0.00 0.09 0.09 97 1009.6
20180123000622 51 235 0.0 3.0 0.00 0.09 0.09 97 1010.1
20180122235118 51 234 0.0 0.0 0.00 0.09 0.09 96 1010.0
20180122233618 51 236 0.0 0.0 0.00 0.09 0.09 96 1010.1
20180122232116 51 235 0.0 0.0 0.00 0.09 0.09 96 1010.3
20180122230615 52 235 0.0 0.0 0.00 0.09 0.09 97 1010.4
20180122225115 52 234 0.0 4.0 0.00 0.09 0.09 97 1010.5
20180122223614 52 235 0.0 3.0 0.00 0.09 0.09 97 1010.5
20180122222115 51 233 0.0 4.0 0.00 0.09 0.09 96 1010.6
20180122220610 51 232 0.0 0.0 0.01 0.09 0.09 96 1010.7
20180122215109 51 232 0.0 0.0 0.01 0.09 0.09 95 1010.9
20180122213608 52 233 0.0 0.0 0.03 0.09 0.09 95 1011.2
20180122212106 52 232 0.0 0.0 0.05 0.09 0.09 95 1011.3
20180122210605 52 233 0.0 0.0 0.04 0.08 0.08 94 1011.6
20180122205102 52 232 0.0 0.0 0.05 0.08 0.08 94 1011.9
20180122203602 52 232 0.0 1.0 0.03 0.06 0.06 93 1012.0
20180122202100 53 233 0.0 3.0 0.04 0.04 0.04 92 1012.1
20180122200558 53 238 0.0 3.0 0.04 0.04 0.04 91 1012.5
20180122195055 53 202 0.0 2.0 0.03 0.03 0.03 89 1013.0
20180122193556 54 207 0.0 5.0 0.03 0.03 0.03 85 1013.2
20180122192052 56 234 0.0 6.0 0.00 0.00 0.00 79 1013.4
20180122190549 57 227 1.0 5.0 0.00 0.00 0.00 71 1013.6
20180122185048 58 203 0.0 4.0 0.00 0.00 0.00 67 1013.6
20180122183546 58 237 0.0 4.0 0.00 0.00 0.00 67 1014.0
20180122182044 58 215 0.0 3.0 0.00 0.00 0.00 63 1014.3
20180122180541 58 215 0.0 3.0 0.00 0.00 0.00 63 1014.8
20180122175038 58 227 0.0 5.0 0.00 0.00 0.00 62 1015.2
20180122173535 59 241 0.0 5.0 0.00 0.00 0.00 62 1015.7
20180122172038 59 197 2.0 7.0 0.00 0.00 0.00 60 1015.9
20180122170533 60 191 0.0 9.0 0.00 0.00 0.00 61 1016.2
20180122165031 60 214 5.0 12.0 0.00 0.00 0.00 60 1016.9
20180122163526 59 252 5.0 11.0 0.00 0.00 0.00 64 1016.9
20180122162022 56 211 1.0 8.0 0.00 0.00 0.00 73 1016.9
20180122160515 51 229 1.0 5.0 0.00 0.00 0.00 86 1017.2
20180122155010 47 225 2.0 6.0 0.00 0.00 0.00 98 1017.5
20180122153506 45 225 0.0 0.0 0.00 0.00 0.00 98 1017.4
20180122152006 43 225 0.0 0.0 0.00 0.00 0.00 98 1017.3
20180122150502 41 225 0.0 0.0 0.00 0.00 0.00 98 1017.8
20180122144957 40 225 0.0 0.0 0.00 0.00 0.00 98 1017.8
20180122143452 38 224 0.0 0.0 0.00 0.00 0.00 98 1017.9
20180122141951 37 225 0.0 0.0 0.00 0.00 0.00 98 1018.0
20180122140447 36 225 0.0 0.0 0.00 0.00 0.00 98 1018.0
20180122134945 35 224 0.0 0.0 0.00 0.00 0.00 97 1018.1
20180122133443 34 225 0.0 0.0 0.00 0.00 0.00 97 1017.8
20180122131942 34 225 0.0 0.0 0.00 0.00 0.00 97 1017.9
20180122130438 34 225 0.0 0.0 0.00 0.00 0.00 96 1018.4
20180122124935 34 225 0.0 0.0 0.00 0.00 0.00 96 1018.3
20180122123438 34 225 0.0 0.0 0.00 0.00 0.00 96 1018.4
20180122121932 34 224 0.0 0.0 0.00 0.00 0.00 95 1018.6
20180122120432 34 225 0.0 0.0 0.00 0.00 0.00 96 1018.6
20180122114931 34 224 0.0 0.0 0.00 0.00 0.00 95 1018.7
20180122113428 34 225 0.0 0.0 0.00 0.00 0.00 95 1018.8
20180122111926 35 224 0.0 0.0 0.00 0.00 0.00 95 1018.6
20180122110425 35 224 0.0 0.0 0.00 0.00 0.00 95 1018.7
20180122104925 35 225 0.0 0.0 0.00 0.00 0.00 95 1019.2
20180122103422 35 224 0.0 0.0 0.00 0.00 0.00 95 1019.0
20180122101921 35 224 0.0 0.0 0.00 0.00 0.00 95 1018.9
20180122100420 35 225 0.0 0.0 0.00 0.00 0.00 95 1018.9
20180122094918 35 224 0.0 0.0 0.00 0.00 0.00 95 1019.0
20180122093418 36 225 0.0 0.0 0.00 0.00 0.00 95 1019.0
20180122091915 36 225 0.0 0.0 0.00 0.00 0.00 95 1019.1
20180122090413 36 224 0.0 0.0 0.00 0.00 0.00 95 1019.2
20180122084915 36 225 0.0 0.0 0.00 0.00 0.00 95 1019.4
20180122083412 36 225 0.0 0.0 0.00 0.00 0.00 95 1019.4
20180122081910 36 225 0.0 0.0 0.00 0.00 0.00 95 1019.4
20180122080410 36 225 0.0 0.0 0.00 0.00 0.00 95 1019.5
20180122074909 36 225 0.0 0.0 0.00 0.00 0.00 94 1019.3
20180122073408 37 225 0.0 0.0 0.00 0.00 0.00 95 1019.5
20180122071907 37 224 0.0 0.0 0.00 0.00 0.00 94 1019.4
20180122070406 37 225 0.0 0.0 0.00 0.00 0.00 93 1019.4
20180122064906 37 224 0.0 0.0 0.00 0.00 0.00 93 1019.5
20180122063400 38 224 0.0 0.0 0.00 0.00 0.00 93 1019.8
20180122061857 38 224 0.0 0.0 0.00 0.00 0.00 93 1020.0
20180122060356 38 225 0.0 0.0 0.00 0.00 0.00 93 1020.2
20180122054854 39 225 0.0 0.0 0.00 0.00 0.00 92 1020.3
20180122053358 39 225 0.0 0.0 0.00 0.00 0.00 92 1020.4
20180122051851 39 225 0.0 0.0 0.00 0.00 0.00 92 1020.3
20180122050350 40 225 0.0 0.0 0.00 0.00 0.00 92 1020.3
20180122044851 40 225 0.0 0.0 0.00 0.00 0.00 92 1020.5
20180122043347 41 225 0.0 0.0 0.00 0.00 0.00 91 1020.7
20180122041844 41 225 0.0 0.0 0.00 0.00 0.00 91 1021.0
20180122040343 41 224 0.0 0.0 0.00 0.00 0.00 91 1021.2
20180122034843 41 225 0.0 0.0 0.00 0.00 0.00 91 1021.2
20180122033341 40 225 0.0 0.0 0.00 0.00 0.00 92 1021.2
20180122031841 40 225 0.0 0.0 0.00 0.00 0.00 91 1021.2
20180122030341 40 224 0.0 0.0 0.00 0.00 0.00 91 1021.2
20180122024842 40 225 0.0 0.0 0.00 0.00 0.00 90 1021.1
20180122023344 40 225 0.0 0.0 0.00 0.00 0.00 90 1021.3
20180122021842 41 225 0.0 0.0 0.00 0.00 0.00 89 1021.3
20180122020341 41 224 0.0 0.0 0.00 0.00 0.00 88 1021.2
20180122014839 41 225 0.0 0.0 0.00 0.00 0.00 87 1021.0